createdAt,value
2022-07-29T00:00:01.691Z,101622.09
2022-07-29T00:02:29.170Z,101615.25
2022-07-29T00:04:56.002Z,101608.22
2022-07-29T00:07:22.709Z,101609.63
2022-07-29T00:09:51.811Z,101603.22
2022-07-29T00:12:26.307Z,101595.25
2022-07-29T00:14:55.760Z,101602.81
2022-07-29T00:17:26.213Z,101593.16
2022-07-29T00:19:53.017Z,101589.88
2022-07-29T00:22:21.025Z,101599.69
2022-07-29T00:24:50.971Z,101600.41
2022-07-29T00:27:18.655Z,101586.72
2022-07-29T00:29:45.697Z,101599.56
2022-07-29T00:32:12.642Z,101603.81
2022-07-29T00:34:57.813Z,101601.00
2022-07-29T00:37:25.196Z,101583.84
2022-07-29T00:39:52.039Z,101590.50
2022-07-29T00:42:18.829Z,101591.88
2022-07-29T00:44:45.571Z,101588.38
2022-07-29T00:47:13.383Z,101585.69
2022-07-29T00:49:41.984Z,101577.59
2022-07-29T00:52:11.273Z,101583.16
2022-07-29T00:54:44.354Z,101569.66
2022-07-29T00:57:12.915Z,101563.22
2022-07-29T00:59:40.436Z,101554.03
2022-07-29T01:02:07.245Z,101550.19
2022-07-29T01:04:34.461Z,101553.31
2022-07-29T01:07:03.572Z,101551.53
2022-07-29T01:09:34.304Z,101558.63
2022-07-29T01:12:25.527Z,101545.50
2022-07-29T01:14:55.195Z,101536.69
2022-07-29T01:17:50.367Z,101540.69
2022-07-29T01:20:23.168Z,101538.88
2022-07-29T01:23:20.411Z,101538.44
2022-07-29T01:26:04.041Z,101537.41
2022-07-29T01:29:20.739Z,101542.59
2022-07-29T01:32:06.755Z,101531.50
2022-07-29T01:34:46.592Z,101525.03
2022-07-29T01:37:37.994Z,101532.41
2022-07-29T01:40:09.520Z,101517.75
2022-07-29T01:42:49.589Z,101526.75
2022-07-29T01:45:33.887Z,101525.88
2022-07-29T01:48:07.814Z,101525.03
2022-07-29T01:50:41.221Z,101520.88
2022-07-29T01:53:11.471Z,101520.94
2022-07-29T01:55:45.507Z,101514.34
2022-07-29T01:58:14.605Z,101517.13
2022-07-29T02:00:43.911Z,101523.44
2022-07-29T02:03:14.038Z,101517.00
2022-07-29T02:05:44.912Z,101515.59
2022-07-29T02:08:13.973Z,101507.91
2022-07-29T02:10:43.203Z,101491.84
2022-07-29T02:13:12.259Z,101511.22
2022-07-29T02:15:42.690Z,101503.22
2022-07-29T02:18:18.215Z,101493.09
2022-07-29T02:20:50.347Z,101500.09
2022-07-29T02:23:21.939Z,101499.31
2022-07-29T02:25:57.818Z,101484.53
2022-07-29T02:28:28.552Z,101487.56
2022-07-29T02:30:59.807Z,101481.25
2022-07-29T02:33:27.968Z,101491.84
2022-07-29T02:35:57.337Z,101493.81
2022-07-29T02:38:45.014Z,101482.72
2022-07-29T02:41:16.680Z,101486.06
2022-07-29T02:43:46.059Z,101487.03
2022-07-29T02:46:28.243Z,101485.91
2022-07-29T02:49:35.844Z,101484.00
2022-07-29T02:52:09.488Z,101480.69
2022-07-29T02:54:47.025Z,101481.41
2022-07-29T02:57:54.448Z,101484.91
2022-07-29T03:00:27.895Z,101487.69
2022-07-29T03:02:59.679Z,101487.00
2022-07-29T03:05:27.154Z,101489.75
2022-07-29T03:08:02.249Z,101489.47
2022-07-29T03:10:29.514Z,101483.41
2022-07-29T03:12:57.447Z,101471.88
2022-07-29T03:15:26.910Z,101479.78
2022-07-29T03:17:53.928Z,101482.41
2022-07-29T03:20:20.987Z,101484.84
2022-07-29T03:22:48.051Z,101483.69
2022-07-29T03:25:17.193Z,101483.88
2022-07-29T03:27:45.001Z,101492.63
2022-07-29T03:30:21.617Z,101471.72
2022-07-29T03:32:50.032Z,101487.16
2022-07-29T03:35:20.331Z,101488.72
2022-07-29T03:37:47.805Z,101478.66
2022-07-29T03:40:22.883Z,101484.69
2022-07-29T03:42:52.119Z,101489.44
2022-07-29T03:45:21.346Z,101469.09
2022-07-29T03:48:00.600Z,101489.47
2022-07-29T03:50:31.568Z,101475.41
2022-07-29T03:52:59.121Z,101484.38
2022-07-29T03:55:27.529Z,101483.59
2022-07-29T03:57:56.332Z,101482.94
2022-07-29T04:00:26.513Z,101484.22
2022-07-29T04:02:53.231Z,101485.47
2022-07-29T04:05:20.177Z,101473.94
2022-07-29T04:07:48.611Z,101482.44
2022-07-29T04:10:17.836Z,101477.53
2022-07-29T04:12:57.591Z,101480.03
2022-07-29T04:15:24.406Z,101478.66
2022-07-29T04:17:51.427Z,101481.97
2022-07-29T04:20:18.358Z,101482.06
2022-07-29T04:22:45.068Z,101480.25
2022-07-29T04:25:11.815Z,101479.63
2022-07-29T04:27:58.557Z,101477.59
2022-07-29T04:30:25.341Z,101479.72
2022-07-29T04:32:52.032Z,101486.06
2022-07-29T04:35:23.132Z,101485.81
2022-07-29T04:37:49.851Z,101488.50
2022-07-29T04:40:16.712Z,101494.03
2022-07-29T04:42:47.234Z,101490.13
2022-07-29T04:45:15.049Z,101484.91
2022-07-29T04:47:43.157Z,101483.94
2022-07-29T04:50:11.033Z,101477.47
2022-07-29T04:52:38.281Z,101483.94
2022-07-29T04:55:06.518Z,101489.72
2022-07-29T04:57:33.769Z,101470.69
2022-07-29T05:00:00.652Z,101483.28
2022-07-29T05:02:27.497Z,101480.66
2022-07-29T05:04:54.267Z,101482.47
2022-07-29T05:07:21.059Z,101480.50
2022-07-29T05:09:48.065Z,101489.75
2022-07-29T05:12:14.853Z,101492.53
2022-07-29T05:14:41.756Z,101485.25
2022-07-29T05:17:08.488Z,101478.00
2022-07-29T05:19:39.639Z,101474.81
2022-07-29T05:22:07.031Z,101478.97
2022-07-29T05:24:33.811Z,101482.03
2022-07-29T05:27:00.514Z,101470.97
2022-07-29T05:29:44.638Z,101479.63
2022-07-29T05:32:13.481Z,101476.88
2022-07-29T05:34:50.119Z,101476.75
2022-07-29T05:37:17.423Z,101476.34
2022-07-29T05:39:47.452Z,101480.97
2022-07-29T05:42:15.874Z,101448.38
2022-07-29T05:44:42.636Z,101445.28
2022-07-29T05:47:09.653Z,101477.34
2022-07-29T05:49:36.416Z,101482.56
2022-07-29T05:52:03.469Z,101484.00
2022-07-29T05:54:30.249Z,101478.34
2022-07-29T05:56:57.264Z,101481.84
2022-07-29T05:59:28.342Z,101484.31
2022-07-29T06:01:58.074Z,101484.56
2022-07-29T06:04:25.063Z,101470.66
2022-07-29T06:06:51.802Z,101477.78
2022-07-29T06:09:18.601Z,101444.19
2022-07-29T06:11:45.594Z,101485.84
2022-07-29T06:14:12.393Z,101486.53
2022-07-29T06:16:39.244Z,101487.50
2022-07-29T06:19:05.992Z,101479.25
2022-07-29T06:21:32.792Z,101479.13
2022-07-29T06:23:59.546Z,101482.00
2022-07-29T06:26:30.977Z,101479.47
2022-07-29T06:28:58.726Z,101465.88
2022-07-29T06:31:25.774Z,101475.97
2022-07-29T06:33:54.679Z,101461.34
2022-07-29T06:36:22.973Z,101471.34
2022-07-29T06:38:52.298Z,101475.28
2022-07-29T06:41:20.444Z,101454.13
2022-07-29T06:43:52.571Z,101474.03
2022-07-29T06:46:23.931Z,101473.03
2022-07-29T06:48:52.514Z,101458.13
2022-07-29T06:51:22.444Z,101458.41
2022-07-29T06:54:00.581Z,101469.38
2022-07-29T06:56:38.573Z,101467.81
2022-07-29T06:59:08.846Z,101462.69
2022-07-29T07:01:37.990Z,101461.22
2022-07-29T07:04:05.002Z,101462.31
2022-07-29T07:06:31.763Z,101468.78
2022-07-29T07:08:58.511Z,101457.53
2022-07-29T07:11:25.277Z,101454.28
2022-07-29T07:13:51.978Z,101459.28
2022-07-29T07:16:18.844Z,101460.94
2022-07-29T07:18:46.229Z,101440.28
2022-07-29T07:21:18.861Z,101461.78
2022-07-29T07:23:47.113Z,101443.03
2022-07-29T07:26:13.867Z,101460.00
2022-07-29T07:28:40.626Z,101464.09
2022-07-29T07:31:07.359Z,101451.66
2022-07-29T07:33:34.061Z,101460.72
2022-07-29T07:36:00.930Z,101458.59
2022-07-29T07:38:27.812Z,101459.72
2022-07-29T07:40:54.551Z,101456.19
2022-07-29T07:43:21.351Z,101461.38
2022-07-29T07:45:48.241Z,101455.13
2022-07-29T07:48:15.136Z,101459.41
2022-07-29T07:50:41.940Z,101444.91
2022-07-29T07:53:08.843Z,101459.63
2022-07-29T07:56:07.968Z,101452.22
2022-07-29T07:58:29.053Z,101443.03
2022-07-29T08:00:55.794Z,101440.03
2022-07-29T08:03:22.585Z,101442.03
2022-07-29T08:05:51.542Z,101435.53
2022-07-29T08:08:18.912Z,101437.34
2022-07-29T08:10:54.703Z,101433.28
2022-07-29T08:13:24.182Z,101432.09
2022-07-29T08:16:12.254Z,101415.78
2022-07-29T08:18:41.664Z,101425.69
2022-07-29T08:21:08.433Z,101427.59
2022-07-29T08:23:49.647Z,101423.69
2022-07-29T08:26:23.623Z,101430.75
2022-07-29T08:28:51.806Z,101429.22
2022-07-29T08:31:19.118Z,101424.94
2022-07-29T08:33:46.047Z,101423.16
2022-07-29T08:36:14.033Z,101413.97
2022-07-29T08:38:40.783Z,101413.66
2022-07-29T08:41:07.706Z,101414.25
2022-07-29T08:43:38.170Z,101426.50
2022-07-29T08:46:05.025Z,101414.25
2022-07-29T08:48:33.385Z,101402.19
2022-07-29T08:51:01.550Z,101410.78
2022-07-29T08:53:30.018Z,101419.56
2022-07-29T08:55:57.870Z,101419.50
2022-07-29T08:58:26.404Z,101386.00
2022-07-29T09:00:57.385Z,101419.34
2022-07-29T09:03:28.391Z,101407.44
2022-07-29T09:05:55.393Z,101398.28
2022-07-29T09:08:22.410Z,101394.91
2022-07-29T09:10:49.529Z,101375.91
2022-07-29T09:13:16.251Z,101398.91
2022-07-29T09:15:42.980Z,101389.53
2022-07-29T09:18:19.483Z,101394.53
2022-07-29T09:21:22.306Z,101381.19
2022-07-29T09:24:13.947Z,101381.44
2022-07-29T09:26:45.778Z,101372.97
2022-07-29T09:29:18.516Z,101392.22
2022-07-29T09:31:49.615Z,101367.25
2022-07-29T09:34:32.284Z,101366.97
2022-07-29T09:36:59.270Z,101358.78
2022-07-29T09:39:45.061Z,101364.09
2022-07-29T09:42:14.119Z,101362.66
2022-07-29T09:44:51.423Z,101364.03
2022-07-29T09:47:22.647Z,101362.91
2022-07-29T09:49:58.734Z,101356.75
2022-07-29T09:52:31.002Z,101365.22
2022-07-29T09:55:09.431Z,101362.38
2022-07-29T09:57:36.242Z,101364.34
2022-07-29T10:00:18.962Z,101361.13
2022-07-29T10:02:47.610Z,101363.69
2022-07-29T10:05:22.003Z,101362.41
2022-07-29T10:07:57.917Z,101356.13
2022-07-29T10:10:36.897Z,101363.88
2022-07-29T10:13:15.206Z,101353.16
2022-07-29T10:15:46.243Z,101352.28
2022-07-29T10:18:15.157Z,101338.47
2022-07-29T10:20:42.537Z,101354.63
2022-07-29T10:23:10.418Z,101352.50
2022-07-29T10:25:37.890Z,101352.00
2022-07-29T10:28:06.743Z,101350.44
2022-07-29T10:30:33.765Z,101350.53
2022-07-29T10:33:58.132Z,101357.25
2022-07-29T10:37:04.878Z,101355.78
2022-07-29T10:40:01.879Z,101356.06
2022-07-29T10:42:34.268Z,101350.91
2022-07-29T10:45:04.890Z,101356.34
2022-07-29T10:47:32.116Z,101335.28
2022-07-29T10:50:01.841Z,101340.44
2022-07-29T10:52:58.428Z,101330.66
2022-07-29T10:55:39.241Z,101344.25
2022-07-29T10:58:18.856Z,101342.09
2022-07-29T11:00:56.389Z,101334.16
2022-07-29T11:03:53.748Z,101336.31
2022-07-29T11:06:28.207Z,101328.34
2022-07-29T11:12:43.550Z,101328.31
2022-07-29T11:15:24.990Z,101318.47
2022-07-29T11:17:54.800Z,101326.56
2022-07-29T11:20:50.030Z,101325.78
2022-07-29T11:23:33.533Z,101330.44
2022-07-29T11:26:33.432Z,101318.00
2022-07-29T11:29:25.531Z,101327.84
2022-07-29T11:31:56.924Z,101325.97
2022-07-29T11:34:37.977Z,101315.34
2022-07-29T11:37:07.733Z,101310.75
2022-07-29T11:39:37.735Z,101322.22
2022-07-29T11:42:32.426Z,101309.13
2022-07-29T11:45:42.100Z,101317.28
2022-07-29T11:48:05.414Z,101305.19
2022-07-29T11:50:45.953Z,101310.22
2022-07-29T11:53:16.184Z,101309.03
2022-07-29T11:55:50.928Z,101304.47
2022-07-29T11:58:25.158Z,101301.06
2022-07-29T12:00:53.228Z,101291.84
2022-07-29T12:03:34.796Z,101293.13
2022-07-29T12:07:03.291Z,101295.88
2022-07-29T12:09:11.194Z,101291.16
2022-07-29T12:11:41.485Z,101293.41
2022-07-29T12:14:34.483Z,101281.97
2022-07-29T12:17:01.741Z,101260.00
2022-07-29T12:19:28.590Z,101271.13
2022-07-29T12:22:02.337Z,101270.63
2022-07-29T12:24:45.042Z,101268.03
2022-07-29T12:27:12.834Z,101270.09
2022-07-29T12:29:41.984Z,101272.13
2022-07-29T12:32:19.552Z,101266.22
2022-07-29T12:34:47.191Z,101278.28
2022-07-29T12:37:14.036Z,101261.81
2022-07-29T12:39:41.030Z,101266.25
2022-07-29T12:42:18.763Z,101271.81
2022-07-29T12:44:51.342Z,101264.09
2022-07-29T12:47:19.450Z,101256.09
2022-07-29T12:49:49.146Z,101264.63
2022-07-29T12:52:34.850Z,101251.44
2022-07-29T12:55:02.626Z,101259.31
2022-07-29T12:57:30.356Z,101243.00
2022-07-29T13:00:12.062Z,101241.22
2022-07-29T13:02:41.675Z,101246.19
2022-07-29T13:05:10.220Z,101234.19
2022-07-29T13:07:54.937Z,101226.28
2022-07-29T13:10:24.371Z,101226.72
2022-07-29T13:13:13.264Z,101225.75
2022-07-29T13:15:44.537Z,101229.03
2022-07-29T13:18:31.179Z,101217.91
2022-07-29T13:21:10.718Z,101208.81
2022-07-29T13:23:38.336Z,101217.50
2022-07-29T13:26:12.729Z,101205.28
2022-07-29T13:28:39.455Z,101204.81
2022-07-29T13:31:06.316Z,101207.66
2022-07-29T13:33:33.046Z,101214.03
2022-07-29T13:35:59.826Z,101199.47
2022-07-29T13:38:31.055Z,101205.88
2022-07-29T13:40:58.833Z,101197.06
2022-07-29T13:43:25.622Z,101199.66
2022-07-29T13:45:52.974Z,101210.91
2022-07-29T13:48:19.801Z,101201.44
2022-07-29T13:50:47.612Z,101201.78
2022-07-29T13:53:17.734Z,101199.41
2022-07-29T13:55:45.257Z,101203.31
2022-07-29T13:58:12.051Z,101198.34
2022-07-29T14:00:38.809Z,101193.66
2022-07-29T14:03:05.575Z,101195.53
2022-07-29T14:05:32.319Z,101185.41
2022-07-29T14:07:59.191Z,101187.84
2022-07-29T14:10:27.050Z,101175.94
2022-07-29T14:12:53.820Z,101185.44
2022-07-29T14:15:21.244Z,101181.06
2022-07-29T14:17:48.080Z,101176.88
2022-07-29T14:22:41.903Z,101158.72
2022-07-29T14:25:15.158Z,101178.41
2022-07-29T14:27:44.597Z,101176.09
2022-07-29T14:30:12.389Z,101174.66
2022-07-29T14:32:39.099Z,101178.81
2022-07-29T14:35:07.032Z,101183.56
2022-07-29T14:37:37.583Z,101173.56
2022-07-29T14:40:08.832Z,101173.88
2022-07-29T14:42:35.692Z,101178.13
2022-07-29T14:45:02.427Z,101181.31
2022-07-29T14:47:29.218Z,101172.97
2022-07-29T14:49:56.386Z,101182.81
2022-07-29T14:52:23.202Z,101177.06
2022-07-29T14:54:50.106Z,101173.31
2022-07-29T14:57:17.438Z,101170.66
2022-07-29T14:59:44.226Z,101166.44
2022-07-29T15:02:11.048Z,101171.53
2022-07-29T15:04:37.868Z,101168.09
2022-07-29T15:07:04.767Z,101160.25
2022-07-29T15:09:31.552Z,101168.41
2022-07-29T15:11:58.740Z,101160.50
2022-07-29T15:14:25.691Z,101158.00
2022-07-29T15:16:52.748Z,101155.63
2022-07-29T15:19:20.399Z,101148.03
2022-07-29T15:21:48.762Z,101157.69
2022-07-29T15:24:19.956Z,101136.38
2022-07-29T15:26:48.543Z,101140.97
2022-07-29T15:29:16.163Z,101145.44
2022-07-29T15:31:44.076Z,101149.97
2022-07-29T15:34:10.823Z,101152.09
2022-07-29T15:36:53.691Z,101141.75
2022-07-29T15:39:22.133Z,101141.75
2022-07-29T15:41:50.390Z,101147.56
2022-07-29T15:44:17.666Z,101145.41
2022-07-29T15:47:19.799Z,101147.50
2022-07-29T15:49:49.379Z,101147.41
2022-07-29T15:52:26.024Z,101148.34
2022-07-29T15:54:55.155Z,101144.66
2022-07-29T15:57:21.954Z,101137.09
2022-07-29T15:59:48.794Z,101142.16
2022-07-29T16:02:15.614Z,101144.28
2022-07-29T16:04:42.318Z,101145.38
2022-07-29T16:07:09.069Z,101139.66
2022-07-29T16:09:35.780Z,101144.06
2022-07-29T16:12:02.600Z,101131.44
2022-07-29T16:14:36.808Z,101131.41
2022-07-29T16:17:04.611Z,101121.88
2022-07-29T16:19:31.443Z,101130.00
2022-07-29T16:21:59.911Z,101119.06
2022-07-29T16:24:29.731Z,101119.53
2022-07-29T16:26:57.240Z,101125.00
2022-07-29T16:29:24.394Z,101128.50
2022-07-29T16:31:51.329Z,101117.31
2022-07-29T16:34:18.077Z,101118.72
2022-07-29T16:36:47.724Z,101122.31
2022-07-29T16:39:14.754Z,101120.50
2022-07-29T16:41:42.224Z,101114.47
2022-07-29T16:44:09.014Z,101110.13
2022-07-29T16:46:37.403Z,101104.41
2022-07-29T16:49:05.935Z,101101.69
2022-07-29T16:51:32.795Z,101112.13
2022-07-29T16:53:59.558Z,101106.53
2022-07-29T16:56:26.235Z,101101.81
2022-07-29T16:58:52.973Z,101109.84
2022-07-29T17:01:20.147Z,101117.78
2022-07-29T17:04:05.745Z,101119.22
2022-07-29T17:06:37.700Z,101079.63
2022-07-29T17:09:06.854Z,101110.91
2022-07-29T17:11:52.325Z,101105.22
2022-07-29T17:14:24.035Z,101103.00
2022-07-29T17:17:02.902Z,101109.22
2022-07-29T17:19:35.661Z,101101.22
2022-07-29T17:22:13.010Z,101105.41
2022-07-29T17:24:43.089Z,101100.72
2022-07-29T17:27:10.451Z,101099.53
2022-07-29T17:29:38.770Z,101103.53
2022-07-29T17:32:07.484Z,101106.09
2022-07-29T17:34:38.480Z,101098.69
2022-07-29T17:37:07.103Z,101106.09
2022-07-29T17:39:35.441Z,101108.56
2022-07-29T17:42:04.389Z,101103.59
2022-07-29T17:44:31.230Z,101102.13
2022-07-29T17:46:59.513Z,101101.19
2022-07-29T17:49:27.215Z,101103.97
2022-07-29T17:51:57.645Z,101111.47
2022-07-29T17:54:27.549Z,101106.44
2022-07-29T17:56:54.348Z,101110.09
2022-07-29T17:59:21.764Z,101116.34
2022-07-29T18:01:48.550Z,101107.50
2022-07-29T18:04:20.060Z,101107.66
2022-07-29T18:06:46.882Z,101121.91
2022-07-29T18:09:13.589Z,101124.50
2022-07-29T18:11:40.332Z,101113.84
2022-07-29T18:14:11.223Z,101115.44
2022-07-29T18:16:38.395Z,101124.88
2022-07-29T18:19:05.307Z,101122.91
2022-07-29T18:21:41.090Z,101120.53
2022-07-29T18:24:18.722Z,101128.81
2022-07-29T18:26:45.441Z,101140.31
2022-07-29T18:29:12.350Z,101135.09
2022-07-29T18:31:41.059Z,101133.22
2022-07-29T18:34:07.911Z,101137.81
2022-07-29T18:36:34.604Z,101140.09
2022-07-29T18:39:01.311Z,101132.56
2022-07-29T18:41:27.993Z,101144.94
2022-07-29T18:43:54.727Z,101137.56
2022-07-29T18:46:21.520Z,101133.75
2022-07-29T18:48:48.337Z,101131.97
2022-07-29T18:51:15.212Z,101131.94
2022-07-29T18:53:43.211Z,101125.69
2022-07-29T18:56:09.887Z,101133.31
2022-07-29T18:58:38.230Z,101131.47
2022-07-29T19:01:06.312Z,101125.25
2022-07-29T19:03:33.040Z,101133.09
2022-07-29T19:05:59.745Z,101139.78
2022-07-29T19:08:26.472Z,101132.97
2022-07-29T19:10:53.359Z,101144.75
2022-07-29T19:13:20.114Z,101141.69
2022-07-29T19:15:46.990Z,101151.88
2022-07-29T19:18:13.812Z,101155.47
2022-07-29T19:20:42.048Z,101160.81
2022-07-29T19:23:09.208Z,101154.16
2022-07-29T19:25:37.348Z,101163.00
2022-07-29T19:28:20.057Z,101158.19
2022-07-29T19:30:46.886Z,101171.81
2022-07-29T19:33:17.319Z,101181.09
2022-07-29T19:35:45.261Z,101166.84
2022-07-29T19:38:12.863Z,101173.47
2022-07-29T19:40:40.114Z,101176.38
2022-07-29T19:43:50.864Z,101159.78
2022-07-29T19:45:54.006Z,101175.44
2022-07-29T19:48:20.733Z,101178.84
2022-07-29T19:50:47.450Z,101172.09
2022-07-29T19:53:14.258Z,101174.88
2022-07-29T19:55:41.943Z,101177.75
2022-07-29T19:58:08.887Z,101182.53
2022-07-29T20:00:35.582Z,101161.72
2022-07-29T20:03:04.593Z,101181.69
2022-07-29T20:05:31.616Z,101195.06
2022-07-29T20:07:58.577Z,101187.72
2022-07-29T20:10:25.557Z,101187.59
2022-07-29T20:12:55.074Z,101186.91
2022-07-29T20:15:22.357Z,101179.13
2022-07-29T20:17:50.333Z,101175.56
2022-07-29T20:20:19.600Z,101181.97
2022-07-29T20:22:46.338Z,101189.78
2022-07-29T20:25:15.278Z,101195.78
2022-07-29T20:27:42.841Z,101199.44
2022-07-29T20:30:13.198Z,101199.59
2022-07-29T20:32:41.325Z,101205.56
2022-07-29T20:35:09.906Z,101201.94
2022-07-29T20:37:56.322Z,101203.06
2022-07-29T20:40:25.674Z,101198.28
2022-07-29T20:42:53.802Z,101202.31
2022-07-29T20:45:21.063Z,101202.78
2022-07-29T20:47:47.968Z,101201.59
2022-07-29T20:50:14.920Z,101203.16
2022-07-29T20:52:43.307Z,101208.50
2022-07-29T20:55:10.595Z,101207.28
2022-07-29T20:57:39.106Z,101201.63
2022-07-29T21:00:07.753Z,101205.50
2022-07-29T21:02:34.768Z,101191.66
2022-07-29T21:05:01.523Z,101204.03
2022-07-29T21:07:28.275Z,101193.38
2022-07-29T21:09:54.952Z,101189.22
2022-07-29T21:12:22.320Z,101206.34
2022-07-29T21:14:49.393Z,101200.56
2022-07-29T21:17:17.462Z,101207.28
2022-07-29T21:19:47.945Z,101204.41
2022-07-29T21:22:14.692Z,101212.69
2022-07-29T21:24:41.566Z,101213.59
2022-07-29T21:27:27.280Z,101215.19
2022-07-29T21:29:54.404Z,101208.16
2022-07-29T21:32:29.527Z,101211.16
2022-07-29T21:34:58.175Z,101211.38
2022-07-29T21:37:25.326Z,101209.47
2022-07-29T21:39:52.109Z,101212.00
2022-07-29T21:42:18.939Z,101214.25
2022-07-29T21:44:45.692Z,101216.97
2022-07-29T21:47:12.763Z,101214.91
2022-07-29T21:49:39.944Z,101219.50
2022-07-29T21:52:07.899Z,101195.75
2022-07-29T21:54:35.135Z,101208.50
2022-07-29T21:57:02.011Z,101212.59
2022-07-29T21:59:29.370Z,101213.19
2022-07-29T22:01:56.354Z,101209.59
2022-07-29T22:04:23.207Z,101217.16
2022-07-29T22:06:50.080Z,101218.84
2022-07-29T22:09:16.824Z,101213.16
2022-07-29T22:11:43.660Z,101215.16
2022-07-29T22:14:10.477Z,101207.00
2022-07-29T22:16:37.330Z,101208.59
2022-07-29T22:19:04.465Z,101199.19
2022-07-29T22:21:31.458Z,101211.84
2022-07-29T22:23:58.341Z,101202.72
2022-07-29T22:26:25.105Z,101209.31
2022-07-29T22:28:51.949Z,101209.22
2022-07-29T22:31:18.894Z,101203.25
2022-07-29T22:33:46.183Z,101200.41
2022-07-29T22:36:12.914Z,101201.59
2022-07-29T22:38:39.836Z,101198.97
2022-07-29T22:41:06.613Z,101202.91
2022-07-29T22:43:34.039Z,101194.06
2022-07-29T22:46:01.026Z,101188.75
2022-07-29T22:48:28.049Z,101187.38
2022-07-29T22:50:54.816Z,101188.63
2022-07-29T22:53:22.081Z,101194.38
2022-07-29T22:55:48.829Z,101193.09
2022-07-29T22:58:15.498Z,101178.59
2022-07-29T23:00:42.270Z,101189.13
2022-07-29T23:03:09.029Z,101188.16
2022-07-29T23:05:35.846Z,101183.25
2022-07-29T23:08:02.740Z,101183.72
2022-07-29T23:10:29.632Z,101182.41
2022-07-29T23:12:56.421Z,101180.13
2022-07-29T23:15:24.465Z,101175.28
2022-07-29T23:17:51.196Z,101178.25
2022-07-29T23:20:18.301Z,101181.22
2022-07-29T23:22:45.305Z,101182.84
2022-07-29T23:25:12.107Z,101182.63
2022-07-29T23:27:38.936Z,101182.16
2022-07-29T23:30:06.838Z,101189.47
2022-07-29T23:32:33.557Z,101189.44
2022-07-29T23:35:00.782Z,101188.25
2022-07-29T23:37:27.755Z,101177.03
2022-07-29T23:39:55.414Z,101187.75
2022-07-29T23:42:22.343Z,101183.66
2022-07-29T23:44:49.130Z,101189.53
2022-07-29T23:47:15.861Z,101187.66
2022-07-29T23:49:42.558Z,101186.91
2022-07-29T23:52:09.410Z,101185.13
2022-07-29T23:54:36.126Z,101189.97
2022-07-29T23:57:03.409Z,101187.09
2022-07-29T23:59:30.264Z,101186.81
